Bridgewater, Maine
Current Conditions -  °F | °C
As of 4:35 PM on Saturday 25 Oct 2014 (Local Time) from KPQI Reporting Station
Overcast Overcast  
Wind Chill: 41°   Ceiling: 5000
Heat Index: 45°   Visibility: 10mi
Dew Point: 39°   Wind: 6mph
Humidity: 81%   Direction: 70°ENE
Pressure: 29.55"   Gusts: NA
Location:  46.43°N, 67.84°W
Report Text: KPQI 252035Z AUTO 07005KT 10SM OVC050 07/04 A2955 RMK AO1
Loading
Personal Weather Stations






























Interactive Weather Map New forecast layout! Learn more

10-Day Weather Forecast

Advertisements
Track Severe Weather on mobile